sensor_id;sensor_type;location;lat;lon;timestamp;P1;durP1;ratioP1;P2;durP2;ratioP2
48241;SDS011;34041;51.812;4.622;2023-08-31T00:00:45;6.40;;;3.00;;
48241;SDS011;34041;51.812;4.622;2023-08-31T00:03:45;4.38;;;3.05;;
48241;SDS011;34041;51.812;4.622;2023-08-31T00:06:45;5.37;;;4.50;;
48241;SDS011;34041;51.812;4.622;2023-08-31T00:09:47;5.30;;;3.90;;
48241;SDS011;34041;51.812;4.622;2023-08-31T00:12:47;5.75;;;3.53;;
48241;SDS011;34041;51.812;4.622;2023-08-31T00:15:49;7.43;;;4.07;;
48241;SDS011;34041;51.812;4.622;2023-08-31T00:18:49;7.03;;;3.80;;
48241;SDS011;34041;51.812;4.622;2023-08-31T00:21:49;7.00;;;3.67;;
48241;SDS011;34041;51.812;4.622;2023-08-31T00:24:49;7.43;;;3.60;;
48241;SDS011;34041;51.812;4.622;2023-08-31T00:27:51;6.90;;;4.10;;
48241;SDS011;34041;51.812;4.622;2023-08-31T00:30:53;5.90;;;3.72;;
48241;SDS011;34041;51.812;4.622;2023-08-31T00:33:54;4.80;;;3.60;;
48241;SDS011;34041;51.812;4.622;2023-08-31T00:36:54;6.40;;;3.97;;
48241;SDS011;34041;51.812;4.622;2023-08-31T00:39:54;7.43;;;3.40;;
48241;SDS011;34041;51.812;4.622;2023-08-31T00:42:55;7.70;;;3.30;;
48241;SDS011;34041;51.812;4.622;2023-08-31T00:45:55;7.80;;;3.73;;
48241;SDS011;34041;51.812;4.622;2023-08-31T00:48:58;5.93;;;3.17;;
48241;SDS011;34041;51.812;4.622;2023-08-31T00:51:58;5.65;;;3.38;;
48241;SDS011;34041;51.812;4.622;2023-08-31T00:54:59;7.80;;;3.90;;
48241;SDS011;34041;51.812;4.622;2023-08-31T00:58:00;9.93;;;5.60;;
48241;SDS011;34041;51.812;4.622;2023-08-31T01:01:06;4.80;;;2.97;;
48241;SDS011;34041;51.812;4.622;2023-08-31T01:10:32;5.60;;;3.08;;
48241;SDS011;34041;51.812;4.622;2023-08-31T01:13:34;6.53;;;3.20;;
48241;SDS011;34041;51.812;4.622;2023-08-31T01:16:36;6.45;;;3.45;;
48241;SDS011;34041;51.812;4.622;2023-08-31T01:19:48;4.13;;;2.60;;
48241;SDS011;34041;51.812;4.622;2023-08-31T01:22:51;8.13;;;3.53;;
48241;SDS011;34041;51.812;4.622;2023-08-31T01:25:55;6.93;;;3.00;;
48241;SDS011;34041;51.812;4.622;2023-08-31T01:28:55;7.68;;;2.80;;
48241;SDS011;34041;51.812;4.622;2023-08-31T01:31:56;5.80;;;2.83;;
48241;SDS011;34041;51.812;4.622;2023-08-31T01:34:56;6.60;;;3.45;;
48241;SDS011;34041;51.812;4.622;2023-08-31T01:41:03;4.78;;;3.03;;
48241;SDS011;34041;51.812;4.622;2023-08-31T01:44:05;7.15;;;3.25;;
48241;SDS011;34041;51.812;4.622;2023-08-31T01:47:08;7.57;;;4.10;;
48241;SDS011;34041;51.812;4.622;2023-08-31T01:50:09;7.75;;;4.00;;
48241;SDS011;34041;51.812;4.622;2023-08-31T01:53:10;5.28;;;2.90;;
48241;SDS011;34041;51.812;4.622;2023-08-31T01:56:10;6.37;;;3.93;;
48241;SDS011;34041;51.812;4.622;2023-08-31T01:59:10;8.17;;;4.10;;
48241;SDS011;34041;51.812;4.622;2023-08-31T02:02:10;5.97;;;4.07;;
48241;SDS011;34041;51.812;4.622;2023-08-31T02:05:11;7.55;;;3.47;;
48241;SDS011;34041;51.812;4.622;2023-08-31T02:08:11;9.15;;;4.13;;
48241;SDS011;34041;51.812;4.622;2023-08-31T02:11:11;11.43;;;4.27;;
48241;SDS011;34041;51.812;4.622;2023-08-31T02:14:11;8.83;;;4.30;;
48241;SDS011;34041;51.812;4.622;2023-08-31T02:17:12;5.95;;;3.38;;
48241;SDS011;34041;51.812;4.622;2023-08-31T02:20:12;7.77;;;4.20;;
48241;SDS011;34041;51.812;4.622;2023-08-31T02:23:14;6.55;;;4.50;;
48241;SDS011;34041;51.812;4.622;2023-08-31T02:26:14;6.57;;;4.30;;
48241;SDS011;34041;51.812;4.622;2023-08-31T02:29:14;8.20;;;4.57;;
48241;SDS011;34041;51.812;4.622;2023-08-31T02:32:14;8.57;;;4.95;;
48241;SDS011;34041;51.812;4.622;2023-08-31T02:35:14;5.53;;;4.70;;
48241;SDS011;34041;51.812;4.622;2023-08-31T02:38:15;6.75;;;4.93;;
48241;SDS011;34041;51.812;4.622;2023-08-31T02:41:15;5.87;;;4.43;;
48241;SDS011;34041;51.812;4.622;2023-08-31T02:44:16;6.90;;;6.20;;
48241;SDS011;34041;51.812;4.622;2023-08-31T02:47:16;11.07;;;6.33;;
48241;SDS011;34041;51.812;4.622;2023-08-31T02:50:16;10.10;;;6.03;;
48241;SDS011;34041;51.812;4.622;2023-08-31T02:53:17;6.90;;;5.35;;
48241;SDS011;34041;51.812;4.622;2023-08-31T02:56:17;5.57;;;4.97;;
48241;SDS011;34041;51.812;4.622;2023-08-31T02:59:17;8.87;;;5.23;;
48241;SDS011;34041;51.812;4.622;2023-08-31T03:02:17;9.07;;;6.20;;
48241;SDS011;34041;51.812;4.622;2023-08-31T03:05:18;7.88;;;5.28;;
48241;SDS011;34041;51.812;4.622;2023-08-31T03:08:18;6.20;;;4.93;;
48241;SDS011;34041;51.812;4.622;2023-08-31T03:11:18;6.40;;;4.90;;
48241;SDS011;34041;51.812;4.622;2023-08-31T03:14:18;6.83;;;5.00;;
48241;SDS011;34041;51.812;4.622;2023-08-31T03:17:19;6.22;;;4.35;;
48241;SDS011;34041;51.812;4.622;2023-08-31T03:20:19;9.27;;;5.30;;
48241;SDS011;34041;51.812;4.622;2023-08-31T03:23:19;7.80;;;5.35;;
48241;SDS011;34041;51.812;4.622;2023-08-31T03:26:19;9.87;;;5.03;;
48241;SDS011;34041;51.812;4.622;2023-08-31T03:29:20;6.77;;;5.20;;
48241;SDS011;34041;51.812;4.622;2023-08-31T03:32:21;11.45;;;6.32;;
48241;SDS011;34041;51.812;4.622;2023-08-31T03:35:21;7.27;;;4.77;;
48241;SDS011;34041;51.812;4.622;2023-08-31T03:38:26;8.32;;;5.63;;
48241;SDS011;34041;51.812;4.622;2023-08-31T03:41:27;8.25;;;5.97;;
48241;SDS011;34041;51.812;4.622;2023-08-31T03:44:27;8.40;;;5.60;;
48241;SDS011;34041;51.812;4.622;2023-08-31T03:47:27;8.23;;;5.53;;
48241;SDS011;34041;51.812;4.622;2023-08-31T03:50:28;9.07;;;5.75;;
48241;SDS011;34041;51.812;4.622;2023-08-31T03:53:28;7.53;;;5.67;;
48241;SDS011;34041;51.812;4.622;2023-08-31T03:56:28;9.00;;;5.63;;
48241;SDS011;34041;51.812;4.622;2023-08-31T03:59:28;8.77;;;5.27;;
48241;SDS011;34041;51.812;4.622;2023-08-31T04:02:28;6.78;;;4.93;;
48241;SDS011;34041;51.812;4.622;2023-08-31T04:05:31;7.88;;;5.25;;
48241;SDS011;34041;51.812;4.622;2023-08-31T04:08:32;6.97;;;4.63;;
48241;SDS011;34041;51.812;4.622;2023-08-31T04:11:32;7.93;;;4.87;;
48241;SDS011;34041;51.812;4.622;2023-08-31T04:14:33;8.27;;;4.80;;
48241;SDS011;34041;51.812;4.622;2023-08-31T04:17:33;12.38;;;5.80;;
48241;SDS011;34041;51.812;4.622;2023-08-31T04:20:33;12.45;;;4.72;;
48241;SDS011;34041;51.812;4.622;2023-08-31T04:23:33;6.93;;;4.93;;
48241;SDS011;34041;51.812;4.622;2023-08-31T04:26:34;11.45;;;5.15;;
48241;SDS011;34041;51.812;4.622;2023-08-31T04:29:34;14.40;;;6.25;;
48241;SDS011;34041;51.812;4.622;2023-08-31T04:32:35;6.82;;;3.97;;
48241;SDS011;34041;51.812;4.622;2023-08-31T04:35:36;5.15;;;4.63;;
48241;SDS011;34041;51.812;4.622;2023-08-31T04:38:37;7.75;;;4.63;;
48241;SDS011;34041;51.812;4.622;2023-08-31T04:41:37;7.68;;;4.32;;
48241;SDS011;34041;51.812;4.622;2023-08-31T04:44:38;7.17;;;4.77;;
48241;SDS011;34041;51.812;4.622;2023-08-31T04:47:38;7.63;;;4.70;;
48241;SDS011;34041;51.812;4.622;2023-08-31T04:50:38;6.30;;;4.57;;
48241;SDS011;34041;51.812;4.622;2023-08-31T04:53:38;4.97;;;3.73;;
48241;SDS011;34041;51.812;4.622;2023-08-31T04:56:39;6.23;;;3.77;;
48241;SDS011;34041;51.812;4.622;2023-08-31T04:59:39;7.63;;;4.77;;
48241;SDS011;34041;51.812;4.622;2023-08-31T05:02:39;11.18;;;4.00;;
48241;SDS011;34041;51.812;4.622;2023-08-31T05:05:39;7.65;;;3.85;;
48241;SDS011;34041;51.812;4.622;2023-08-31T05:08:41;6.13;;;3.65;;
48241;SDS011;34041;51.812;4.622;2023-08-31T05:11:41;6.23;;;3.43;;
48241;SDS011;34041;51.812;4.622;2023-08-31T05:14:42;10.73;;;4.33;;
48241;SDS011;34041;51.812;4.622;2023-08-31T05:17:42;7.47;;;3.67;;
48241;SDS011;34041;51.812;4.622;2023-08-31T05:20:45;7.85;;;3.63;;
48241;SDS011;34041;51.812;4.622;2023-08-31T05:23:46;6.75;;;3.83;;
48241;SDS011;34041;51.812;4.622;2023-08-31T05:26:46;6.03;;;4.00;;
48241;SDS011;34041;51.812;4.622;2023-08-31T05:29:47;6.67;;;3.77;;
48241;SDS011;34041;51.812;4.622;2023-08-31T05:32:47;5.30;;;4.60;;
48241;SDS011;34041;51.812;4.622;2023-08-31T05:35:47;6.40;;;4.13;;
48241;SDS011;34041;51.812;4.622;2023-08-31T05:38:48;8.23;;;4.15;;
48241;SDS011;34041;51.812;4.622;2023-08-31T05:41:48;5.53;;;3.85;;
48241;SDS011;34041;51.812;4.622;2023-08-31T05:44:48;4.93;;;3.13;;
48241;SDS011;34041;51.812;4.622;2023-08-31T05:47:48;4.50;;;3.20;;
48241;SDS011;34041;51.812;4.622;2023-08-31T05:50:48;6.87;;;3.70;;
48241;SDS011;34041;51.812;4.622;2023-08-31T05:53:49;6.70;;;3.80;;
48241;SDS011;34041;51.812;4.622;2023-08-31T05:56:49;5.30;;;3.93;;
48241;SDS011;34041;51.812;4.622;2023-08-31T05:59:49;9.13;;;3.60;;
48241;SDS011;34041;51.812;4.622;2023-08-31T06:02:49;6.00;;;3.90;;
48241;SDS011;34041;51.812;4.622;2023-08-31T06:05:49;7.63;;;3.90;;
48241;SDS011;34041;51.812;4.622;2023-08-31T06:08:50;5.60;;;3.90;;
48241;SDS011;34041;51.812;4.622;2023-08-31T06:11:50;10.23;;;3.00;;
48241;SDS011;34041;51.812;4.622;2023-08-31T06:14:50;7.17;;;3.40;;
48241;SDS011;34041;51.812;4.622;2023-08-31T06:17:50;7.53;;;4.10;;
48241;SDS011;34041;51.812;4.622;2023-08-31T06:20:51;5.85;;;3.67;;
48241;SDS011;34041;51.812;4.622;2023-08-31T06:23:51;8.18;;;4.72;;
48241;SDS011;34041;51.812;4.622;2023-08-31T06:26:51;5.85;;;4.10;;
48241;SDS011;34041;51.812;4.622;2023-08-31T06:29:52;6.30;;;3.63;;
48241;SDS011;34041;51.812;4.622;2023-08-31T06:32:52;6.93;;;3.85;;
48241;SDS011;34041;51.812;4.622;2023-08-31T06:35:52;6.33;;;3.60;;
48241;SDS011;34041;51.812;4.622;2023-08-31T06:38:53;6.33;;;3.67;;
48241;SDS011;34041;51.812;4.622;2023-08-31T06:41:53;6.20;;;3.53;;
48241;SDS011;34041;51.812;4.622;2023-08-31T06:44:53;6.15;;;3.80;;
48241;SDS011;34041;51.812;4.622;2023-08-31T06:47:55;6.40;;;3.72;;
48241;SDS011;34041;51.812;4.622;2023-08-31T06:50:56;6.87;;;2.90;;
48241;SDS011;34041;51.812;4.622;2023-08-31T06:53:56;6.07;;;3.53;;
48241;SDS011;34041;51.812;4.622;2023-08-31T06:57:01;10.50;;;3.65;;
48241;SDS011;34041;51.812;4.622;2023-08-31T07:00:03;6.70;;;2.90;;
48241;SDS011;34041;51.812;4.622;2023-08-31T07:03:04;6.32;;;3.20;;
48241;SDS011;34041;51.812;4.622;2023-08-31T07:06:05;4.20;;;2.85;;
48241;SDS011;34041;51.812;4.622;2023-08-31T07:09:05;5.83;;;2.97;;
48241;SDS011;34041;51.812;4.622;2023-08-31T07:12:06;4.63;;;2.70;;
48241;SDS011;34041;51.812;4.622;2023-08-31T07:15:07;4.33;;;2.83;;
48241;SDS011;34041;51.812;4.622;2023-08-31T07:18:07;7.70;;;3.28;;
48241;SDS011;34041;51.812;4.622;2023-08-31T07:21:07;4.32;;;2.70;;
48241;SDS011;34041;51.812;4.622;2023-08-31T07:24:08;6.40;;;3.13;;
48241;SDS011;34041;51.812;4.622;2023-08-31T07:27:08;4.15;;;3.05;;
48241;SDS011;34041;51.812;4.622;2023-08-31T07:30:09;3.47;;;2.50;;
48241;SDS011;34041;51.812;4.622;2023-08-31T07:33:10;6.15;;;2.92;;
48241;SDS011;34041;51.812;4.622;2023-08-31T07:36:10;3.83;;;2.63;;
48241;SDS011;34041;51.812;4.622;2023-08-31T07:39:10;6.87;;;3.83;;
48241;SDS011;34041;51.812;4.622;2023-08-31T07:42:10;4.10;;;2.80;;
48241;SDS011;34041;51.812;4.622;2023-08-31T07:45:11;5.50;;;2.63;;
48241;SDS011;34041;51.812;4.622;2023-08-31T07:48:11;4.30;;;3.22;;
48241;SDS011;34041;51.812;4.622;2023-08-31T07:51:11;4.03;;;2.75;;
48241;SDS011;34041;51.812;4.622;2023-08-31T07:54:18;3.97;;;2.70;;
48241;SDS011;34041;51.812;4.622;2023-08-31T07:57:19;5.53;;;3.05;;
48241;SDS011;34041;51.812;4.622;2023-08-31T08:00:19;3.67;;;2.60;;
48241;SDS011;34041;51.812;4.622;2023-08-31T08:03:19;4.88;;;3.13;;
48241;SDS011;34041;51.812;4.622;2023-08-31T08:06:20;6.25;;;2.90;;
48241;SDS011;34041;51.812;4.622;2023-08-31T08:09:20;5.00;;;3.13;;
48241;SDS011;34041;51.812;4.622;2023-08-31T08:12:20;5.77;;;3.30;;
48241;SDS011;34041;51.812;4.622;2023-08-31T08:15:20;4.32;;;2.60;;
48241;SDS011;34041;51.812;4.622;2023-08-31T08:18:20;4.50;;;2.87;;
48241;SDS011;34041;51.812;4.622;2023-08-31T08:21:21;5.80;;;3.30;;
48241;SDS011;34041;51.812;4.622;2023-08-31T08:24:21;7.87;;;2.90;;
48241;SDS011;34041;51.812;4.622;2023-08-31T08:27:21;5.17;;;2.10;;
48241;SDS011;34041;51.812;4.622;2023-08-31T08:30:21;2.90;;;2.10;;
48241;SDS011;34041;51.812;4.622;2023-08-31T08:33:21;6.50;;;3.07;;
48241;SDS011;34041;51.812;4.622;2023-08-31T08:36:22;5.13;;;2.77;;
48241;SDS011;34041;51.812;4.622;2023-08-31T08:39:22;4.80;;;2.97;;
48241;SDS011;34041;51.812;4.622;2023-08-31T08:42:23;3.23;;;2.37;;
48241;SDS011;34041;51.812;4.622;2023-08-31T08:45:24;4.68;;;2.50;;
48241;SDS011;34041;51.812;4.622;2023-08-31T08:48:25;9.02;;;2.30;;
48241;SDS011;34041;51.812;4.622;2023-08-31T08:51:26;5.40;;;2.33;;
48241;SDS011;34041;51.812;4.622;2023-08-31T08:54:27;3.88;;;2.47;;
48241;SDS011;34041;51.812;4.622;2023-08-31T08:57:27;5.20;;;2.47;;
48241;SDS011;34041;51.812;4.622;2023-08-31T09:00:28;4.35;;;2.40;;
48241;SDS011;34041;51.812;4.622;2023-08-31T09:03:28;4.03;;;1.88;;
48241;SDS011;34041;51.812;4.622;2023-08-31T09:06:28;7.68;;;2.65;;
48241;SDS011;34041;51.812;4.622;2023-08-31T09:09:28;3.83;;;2.15;;
48241;SDS011;34041;51.812;4.622;2023-08-31T09:12:29;8.82;;;2.15;;
48241;SDS011;34041;51.812;4.622;2023-08-31T09:15:36;9.27;;;2.27;;
48241;SDS011;34041;51.812;4.622;2023-08-31T09:18:37;4.13;;;2.00;;
48241;SDS011;34041;51.812;4.622;2023-08-31T09:21:37;3.90;;;2.03;;
48241;SDS011;34041;51.812;4.622;2023-08-31T09:24:39;4.10;;;2.28;;
48241;SDS011;34041;51.812;4.622;2023-08-31T09:27:40;4.60;;;2.70;;
48241;SDS011;34041;51.812;4.622;2023-08-31T09:30:40;4.25;;;1.73;;
48241;SDS011;34041;51.812;4.622;2023-08-31T09:33:49;3.83;;;1.40;;
48241;SDS011;34041;51.812;4.622;2023-08-31T09:36:49;6.43;;;2.00;;
48241;SDS011;34041;51.812;4.622;2023-08-31T09:39:50;5.40;;;1.70;;
48241;SDS011;34041;51.812;4.622;2023-08-31T09:42:50;5.57;;;2.28;;
48241;SDS011;34041;51.812;4.622;2023-08-31T09:45:51;2.33;;;1.23;;
48241;SDS011;34041;51.812;4.622;2023-08-31T09:48:52;4.93;;;1.55;;
48241;SDS011;34041;51.812;4.622;2023-08-31T09:51:53;5.22;;;2.08;;
48241;SDS011;34041;51.812;4.622;2023-08-31T09:54:53;6.88;;;1.60;;
48241;SDS011;34041;51.812;4.622;2023-08-31T09:57:55;4.38;;;1.50;;
48241;SDS011;34041;51.812;4.622;2023-08-31T10:00:56;3.38;;;1.95;;
48241;SDS011;34041;51.812;4.622;2023-08-31T10:03:56;3.60;;;1.25;;
48241;SDS011;34041;51.812;4.622;2023-08-31T10:06:58;2.85;;;1.35;;
48241;SDS011;34041;51.812;4.622;2023-08-31T10:09:59;4.35;;;1.88;;
48241;SDS011;34041;51.812;4.622;2023-08-31T10:13:00;4.85;;;1.45;;
48241;SDS011;34041;51.812;4.622;2023-08-31T10:16:02;5.43;;;1.40;;
48241;SDS011;34041;51.812;4.622;2023-08-31T10:19:03;2.80;;;1.20;;
48241;SDS011;34041;51.812;4.622;2023-08-31T10:22:04;3.42;;;1.17;;
48241;SDS011;34041;51.812;4.622;2023-08-31T10:25:06;2.38;;;1.30;;
48241;SDS011;34041;51.812;4.622;2023-08-31T10:28:16;2.72;;;1.30;;
48241;SDS011;34041;51.812;4.622;2023-08-31T10:31:16;3.67;;;1.45;;
48241;SDS011;34041;51.812;4.622;2023-08-31T10:34:17;4.28;;;1.10;;
48241;SDS011;34041;51.812;4.622;2023-08-31T10:37:33;4.57;;;1.30;;
48241;SDS011;34041;51.812;4.622;2023-08-31T10:40:34;4.80;;;1.30;;
48241;SDS011;34041;51.812;4.622;2023-08-31T10:44:17;2.50;;;1.10;;
48241;SDS011;34041;51.812;4.622;2023-08-31T10:47:02;3.50;;;1.48;;
48241;SDS011;34041;51.812;4.622;2023-08-31T10:50:20;2.20;;;1.00;;
48241;SDS011;34041;51.812;4.622;2023-08-31T10:53:27;3.95;;;1.30;;
48241;SDS011;34041;51.812;4.622;2023-08-31T10:56:29;3.05;;;1.17;;
48241;SDS011;34041;51.812;4.622;2023-08-31T10:59:43;4.82;;;1.17;;
48241;SDS011;34041;51.812;4.622;2023-08-31T11:02:44;1.90;;;0.90;;
48241;SDS011;34041;51.812;4.622;2023-08-31T11:05:50;2.80;;;1.48;;
48241;SDS011;34041;51.812;4.622;2023-08-31T11:08:51;2.05;;;1.02;;
48241;SDS011;34041;51.812;4.622;2023-08-31T11:11:51;2.53;;;1.07;;
48241;SDS011;34041;51.812;4.622;2023-08-31T11:14:53;2.10;;;1.10;;
48241;SDS011;34041;51.812;4.622;2023-08-31T11:17:55;1.98;;;0.75;;
48241;SDS011;34041;51.812;4.622;2023-08-31T11:20:55;2.28;;;1.08;;
48241;SDS011;34041;51.812;4.622;2023-08-31T11:23:57;5.95;;;1.30;;
48241;SDS011;34041;51.812;4.622;2023-08-31T11:26:58;1.98;;;0.93;;
48241;SDS011;34041;51.812;4.622;2023-08-31T11:29:59;5.70;;;1.30;;
48241;SDS011;34041;51.812;4.622;2023-08-31T11:33:03;3.45;;;1.48;;
48241;SDS011;34041;51.812;4.622;2023-08-31T11:36:03;3.08;;;0.88;;
48241;SDS011;34041;51.812;4.622;2023-08-31T11:39:04;3.15;;;1.00;;
48241;SDS011;34041;51.812;4.622;2023-08-31T11:42:04;2.20;;;0.90;;
48241;SDS011;34041;51.812;4.622;2023-08-31T11:45:04;4.10;;;1.30;;
48241;SDS011;34041;51.812;4.622;2023-08-31T11:48:06;2.42;;;0.70;;
48241;SDS011;34041;51.812;4.622;2023-08-31T11:51:06;2.42;;;1.25;;
48241;SDS011;34041;51.812;4.622;2023-08-31T11:54:07;2.80;;;1.30;;
48241;SDS011;34041;51.812;4.622;2023-08-31T11:57:08;2.95;;;1.23;;
48241;SDS011;34041;51.812;4.622;2023-08-31T12:00:09;2.08;;;1.00;;
48241;SDS011;34041;51.812;4.622;2023-08-31T12:03:10;2.10;;;1.00;;
48241;SDS011;34041;51.812;4.622;2023-08-31T12:06:11;5.00;;;1.23;;
48241;SDS011;34041;51.812;4.622;2023-08-31T12:09:11;2.38;;;1.08;;
48241;SDS011;34041;51.812;4.622;2023-08-31T12:12:14;3.50;;;1.10;;
48241;SDS011;34041;51.812;4.622;2023-08-31T12:15:18;2.65;;;1.38;;
48241;SDS011;34041;51.812;4.622;2023-08-31T12:18:18;4.40;;;1.00;;
48241;SDS011;34041;51.812;4.622;2023-08-31T12:21:19;3.37;;;1.17;;
48241;SDS011;34041;51.812;4.622;2023-08-31T12:24:20;2.20;;;1.00;;
48241;SDS011;34041;51.812;4.622;2023-08-31T12:27:22;4.85;;;1.38;;
48241;SDS011;34041;51.812;4.622;2023-08-31T12:30:22;1.92;;;1.00;;
48241;SDS011;34041;51.812;4.622;2023-08-31T12:33:22;2.45;;;1.15;;
48241;SDS011;34041;51.812;4.622;2023-08-31T12:36:23;2.92;;;1.10;;
48241;SDS011;34041;51.812;4.622;2023-08-31T12:39:23;6.63;;;1.67;;
48241;SDS011;34041;51.812;4.622;2023-08-31T12:42:23;2.57;;;0.80;;
48241;SDS011;34041;51.812;4.622;2023-08-31T12:45:24;2.92;;;1.10;;
48241;SDS011;34041;51.812;4.622;2023-08-31T12:48:24;2.53;;;1.00;;
48241;SDS011;34041;51.812;4.622;2023-08-31T12:51:24;3.67;;;1.30;;
48241;SDS011;34041;51.812;4.622;2023-08-31T12:54:24;3.35;;;1.05;;
48241;SDS011;34041;51.812;4.622;2023-08-31T12:57:25;3.13;;;1.33;;
48241;SDS011;34041;51.812;4.622;2023-08-31T13:00:25;4.37;;;1.10;;
48241;SDS011;34041;51.812;4.622;2023-08-31T13:03:25;3.22;;;0.85;;
48241;SDS011;34041;51.812;4.622;2023-08-31T13:06:25;2.97;;;1.67;;
48241;SDS011;34041;51.812;4.622;2023-08-31T13:09:26;2.92;;;1.35;;
48241;SDS011;34041;51.812;4.622;2023-08-31T13:12:28;4.50;;;1.08;;
48241;SDS011;34041;51.812;4.622;2023-08-31T13:15:28;3.47;;;1.40;;
48241;SDS011;34041;51.812;4.622;2023-08-31T13:18:28;2.57;;;1.27;;
48241;SDS011;34041;51.812;4.622;2023-08-31T13:21:29;3.92;;;1.35;;
48241;SDS011;34041;51.812;4.622;2023-08-31T13:24:29;5.33;;;1.50;;
48241;SDS011;34041;51.812;4.622;2023-08-31T13:27:29;3.95;;;1.83;;
48241;SDS011;34041;51.812;4.622;2023-08-31T13:30:29;3.88;;;1.70;;
48241;SDS011;34041;51.812;4.622;2023-08-31T13:33:30;7.17;;;2.17;;
48241;SDS011;34041;51.812;4.622;2023-08-31T13:36:30;5.75;;;1.83;;
48241;SDS011;34041;51.812;4.622;2023-08-31T13:39:31;5.00;;;2.33;;
48241;SDS011;34041;51.812;4.622;2023-08-31T13:42:33;4.65;;;2.20;;
48241;SDS011;34041;51.812;4.622;2023-08-31T13:45:33;6.75;;;2.10;;
48241;SDS011;34041;51.812;4.622;2023-08-31T13:48:33;4.15;;;1.95;;
48241;SDS011;34041;51.812;4.622;2023-08-31T13:51:34;4.40;;;2.15;;
48241;SDS011;34041;51.812;4.622;2023-08-31T13:54:34;5.43;;;1.80;;
48241;SDS011;34041;51.812;4.622;2023-08-31T13:57:34;7.07;;;1.77;;
48241;SDS011;34041;51.812;4.622;2023-08-31T14:00:35;2.85;;;1.23;;
48241;SDS011;34041;51.812;4.622;2023-08-31T14:03:35;3.67;;;1.58;;
48241;SDS011;34041;51.812;4.622;2023-08-31T14:06:36;5.03;;;1.77;;
48241;SDS011;34041;51.812;4.622;2023-08-31T14:09:36;5.23;;;1.77;;
48241;SDS011;34041;51.812;4.622;2023-08-31T14:12:36;3.73;;;1.40;;
48241;SDS011;34041;51.812;4.622;2023-08-31T14:15:36;7.18;;;1.80;;
48241;SDS011;34041;51.812;4.622;2023-08-31T14:18:44;2.28;;;1.50;;
48241;SDS011;34041;51.812;4.622;2023-08-31T14:21:45;3.15;;;1.20;;
48241;SDS011;34041;51.812;4.622;2023-08-31T14:24:45;2.43;;;1.93;;
48241;SDS011;34041;51.812;4.622;2023-08-31T14:27:46;3.93;;;1.50;;
48241;SDS011;34041;51.812;4.622;2023-08-31T14:30:47;3.63;;;1.60;;
48241;SDS011;34041;51.812;4.622;2023-08-31T14:33:47;2.15;;;0.88;;
48241;SDS011;34041;51.812;4.622;2023-08-31T14:36:47;3.35;;;1.55;;
48241;SDS011;34041;51.812;4.622;2023-08-31T14:39:48;3.63;;;1.42;;
48241;SDS011;34041;51.812;4.622;2023-08-31T14:42:48;4.20;;;1.30;;
48241;SDS011;34041;51.812;4.622;2023-08-31T14:45:48;6.10;;;1.63;;
48241;SDS011;34041;51.812;4.622;2023-08-31T14:48:48;2.75;;;1.60;;
48241;SDS011;34041;51.812;4.622;2023-08-31T14:51:48;6.90;;;1.40;;
48241;SDS011;34041;51.812;4.622;2023-08-31T14:54:49;2.30;;;1.60;;
48241;SDS011;34041;51.812;4.622;2023-08-31T14:57:49;6.82;;;1.80;;
48241;SDS011;34041;51.812;4.622;2023-08-31T15:00:49;1.97;;;1.10;;
48241;SDS011;34041;51.812;4.622;2023-08-31T15:03:49;2.30;;;1.27;;
48241;SDS011;34041;51.812;4.622;2023-08-31T15:06:50;3.17;;;1.60;;
48241;SDS011;34041;51.812;4.622;2023-08-31T15:09:51;2.75;;;1.30;;
48241;SDS011;34041;51.812;4.622;2023-08-31T15:12:51;5.13;;;1.75;;
48241;SDS011;34041;51.812;4.622;2023-08-31T15:15:55;5.20;;;1.50;;
48241;SDS011;34041;51.812;4.622;2023-08-31T15:18:55;3.45;;;1.30;;
48241;SDS011;34041;51.812;4.622;2023-08-31T15:21:56;4.60;;;1.98;;
48241;SDS011;34041;51.812;4.622;2023-08-31T15:24:56;3.57;;;1.50;;
48241;SDS011;34041;51.812;4.622;2023-08-31T15:27:56;3.70;;;1.80;;
48241;SDS011;34041;51.812;4.622;2023-08-31T15:30:57;8.82;;;2.42;;
48241;SDS011;34041;51.812;4.622;2023-08-31T15:33:57;8.13;;;2.30;;
48241;SDS011;34041;51.812;4.622;2023-08-31T15:36:57;9.17;;;2.67;;
48241;SDS011;34041;51.812;4.622;2023-08-31T15:39:57;5.00;;;1.70;;
48241;SDS011;34041;51.812;4.622;2023-08-31T15:42:58;3.58;;;1.90;;
48241;SDS011;34041;51.812;4.622;2023-08-31T15:45:58;5.37;;;2.50;;
48241;SDS011;34041;51.812;4.622;2023-08-31T15:48:59;5.50;;;2.35;;
48241;SDS011;34041;51.812;4.622;2023-08-31T15:51:59;5.33;;;2.10;;
48241;SDS011;34041;51.812;4.622;2023-08-31T15:55:02;5.63;;;2.80;;
48241;SDS011;34041;51.812;4.622;2023-08-31T15:58:03;6.18;;;2.42;;
48241;SDS011;34041;51.812;4.622;2023-08-31T16:01:08;3.57;;;1.77;;
48241;SDS011;34041;51.812;4.622;2023-08-31T16:07:09;5.03;;;2.00;;
48241;SDS011;34041;51.812;4.622;2023-08-31T16:10:09;3.40;;;1.88;;
48241;SDS011;34041;51.812;4.622;2023-08-31T16:13:10;4.13;;;2.28;;
48241;SDS011;34041;51.812;4.622;2023-08-31T16:16:10;5.40;;;2.20;;
48241;SDS011;34041;51.812;4.622;2023-08-31T16:19:10;6.97;;;2.75;;
48241;SDS011;34041;51.812;4.622;2023-08-31T16:22:11;4.72;;;2.15;;
48241;SDS011;34041;51.812;4.622;2023-08-31T16:25:12;6.32;;;1.92;;
48241;SDS011;34041;51.812;4.622;2023-08-31T16:28:12;6.00;;;2.63;;
48241;SDS011;34041;51.812;4.622;2023-08-31T16:31:12;8.50;;;2.27;;
48241;SDS011;34041;51.812;4.622;2023-08-31T16:34:13;3.30;;;1.95;;
48241;SDS011;34041;51.812;4.622;2023-08-31T16:37:14;3.17;;;1.70;;
48241;SDS011;34041;51.812;4.622;2023-08-31T16:40:14;2.85;;;1.67;;
48241;SDS011;34041;51.812;4.622;2023-08-31T16:43:14;5.40;;;1.88;;
48241;SDS011;34041;51.812;4.622;2023-08-31T16:46:14;3.50;;;1.77;;
48241;SDS011;34041;51.812;4.622;2023-08-31T16:49:15;4.43;;;1.60;;
48241;SDS011;34041;51.812;4.622;2023-08-31T16:52:15;4.18;;;1.73;;
48241;SDS011;34041;51.812;4.622;2023-08-31T16:55:15;5.97;;;2.33;;
48241;SDS011;34041;51.812;4.622;2023-08-31T16:58:15;4.90;;;1.93;;
48241;SDS011;34041;51.812;4.622;2023-08-31T17:01:16;6.63;;;1.70;;
48241;SDS011;34041;51.812;4.622;2023-08-31T17:04:16;4.07;;;1.90;;
48241;SDS011;34041;51.812;4.622;2023-08-31T17:07:16;4.13;;;1.90;;
48241;SDS011;34041;51.812;4.622;2023-08-31T17:10:16;6.70;;;1.77;;
48241;SDS011;34041;51.812;4.622;2023-08-31T17:13:17;4.70;;;1.70;;
48241;SDS011;34041;51.812;4.622;2023-08-31T17:16:17;2.93;;;1.40;;
48241;SDS011;34041;51.812;4.622;2023-08-31T17:19:17;5.67;;;2.03;;
48241;SDS011;34041;51.812;4.622;2023-08-31T17:22:18;5.22;;;1.38;;
48241;SDS011;34041;51.812;4.622;2023-08-31T17:25:18;4.53;;;2.27;;
48241;SDS011;34041;51.812;4.622;2023-08-31T17:28:19;3.17;;;1.60;;
48241;SDS011;34041;51.812;4.622;2023-08-31T17:31:20;2.80;;;1.63;;
48241;SDS011;34041;51.812;4.622;2023-08-31T17:34:20;2.45;;;1.15;;
48241;SDS011;34041;51.812;4.622;2023-08-31T17:37:21;4.18;;;1.90;;
48241;SDS011;34041;51.812;4.622;2023-08-31T17:40:21;5.47;;;1.93;;
48241;SDS011;34041;51.812;4.622;2023-08-31T17:43:22;5.07;;;1.70;;
48241;SDS011;34041;51.812;4.622;2023-08-31T17:46:23;3.25;;;1.90;;
48241;SDS011;34041;51.812;4.622;2023-08-31T17:49:23;5.85;;;1.70;;
48241;SDS011;34041;51.812;4.622;2023-08-31T17:52:23;3.00;;;1.87;;
48241;SDS011;34041;51.812;4.622;2023-08-31T17:55:23;4.77;;;1.47;;
48241;SDS011;34041;51.812;4.622;2023-08-31T17:58:23;4.97;;;2.08;;
48241;SDS011;34041;51.812;4.622;2023-08-31T18:01:24;3.70;;;1.97;;
48241;SDS011;34041;51.812;4.622;2023-08-31T18:04:24;4.60;;;1.67;;
48241;SDS011;34041;51.812;4.622;2023-08-31T18:07:24;3.40;;;1.53;;
48241;SDS011;34041;51.812;4.622;2023-08-31T18:10:24;4.38;;;1.70;;
48241;SDS011;34041;51.812;4.622;2023-08-31T18:13:25;4.30;;;2.00;;
48241;SDS011;34041;51.812;4.622;2023-08-31T18:16:25;4.27;;;1.83;;
48241;SDS011;34041;51.812;4.622;2023-08-31T18:19:26;4.27;;;2.07;;
48241;SDS011;34041;51.812;4.622;2023-08-31T18:22:30;3.45;;;1.80;;